If you wish to contribute or participate in the discussions about articles you are invited to join SKYbrary as a registered user

Enugu/Akanu Ibiam International Airport

From SKYbrary Wiki
DNEN
Airport
ICAO: DNEN – IATA: ENU
Summary
Name Enugu/Akanu Ibiam International Airport
Region Africa
Territory Nigeria NG.gif
Location Enugu
Serving Enugu
Elevation 142.037 m
466 ft
466 ft142.037 m
Coordinates 6° 28' 31.64", 7° 33' 42.8851"
Runways
Designator Length Width Surface
8/26 2402 m7,880.577 ft 45 m147.638 ft ASP
METAR
Observation DNEN 040400Z 00000KT 6000 BKN007 24/23 Q1014 N0SIG
Station Enugu
Date/Time 04 July 2015 04:00:00
Wind direction
Wind speed 00 kts
Lowest cloud amount broken clouds
Temperature 24°C
Dew point 23°C
Humidity 94%
QNH 1014 hPa
Weather condition n/a

Enugu/Akanu Ibiam International Airport

ICAO: DNEN IATA: ENU

Description

Akanu Ibiam International Airport, also known as Enugu Airport, is an airport serving Enugu, a city in the Enugu State of Nigeria.

Climatology

Tropical Savanna climate (Köppen climate classification Aw)

Maps

Terrain

Loading map...

Airport Layout

Loading map...


Accidents & Serious Incidents at or in vicinity of DNEN

None on SKYbrary